createdAt,value
2018-10-19T00:02:09.313Z,100.88
2018-10-19T00:05:13.012Z,100.91
2018-10-19T00:08:16.718Z,100.99
2018-10-19T00:11:20.433Z,101.04
2018-10-19T00:14:24.182Z,101.22
2018-10-19T00:17:27.889Z,101.07
2018-10-19T00:20:31.500Z,101.20
2018-10-19T00:23:35.165Z,101.24
2018-10-19T00:26:38.848Z,101.40
2018-10-19T00:29:42.605Z,101.36
2018-10-19T00:32:46.212Z,101.52
2018-10-19T00:35:49.832Z,101.78
2018-10-19T00:38:53.459Z,102.10
2018-10-19T00:41:56.967Z,102.09
2018-10-19T00:45:00.577Z,102.36
2018-10-19T00:48:11.964Z,102.39
2018-10-19T00:51:15.538Z,102.37
2018-10-19T00:54:19.203Z,102.33
2018-10-19T00:57:22.903Z,102.23
2018-10-19T01:00:26.528Z,102.33
2018-10-19T01:03:30.089Z,102.30
2018-10-19T01:06:33.699Z,102.26
2018-10-19T01:09:37.445Z,102.52
2018-10-19T01:12:41.023Z,102.75
2018-10-19T01:15:44.539Z,102.97
2018-10-19T01:18:48.129Z,103.02
2018-10-19T01:21:51.709Z,103.01
2018-10-19T01:24:55.379Z,103.00
2018-10-19T01:27:58.974Z,102.98
2018-10-19T01:31:02.523Z,102.95
2018-10-19T01:34:06.278Z,102.88
2018-10-19T01:37:09.913Z,102.81
2018-10-19T01:40:14.230Z,102.76
2018-10-19T01:43:17.816Z,102.80
2018-10-19T01:46:21.419Z,102.74
2018-10-19T01:49:24.998Z,102.71
2018-10-19T01:52:28.619Z,102.64
2018-10-19T01:55:32.115Z,102.44
2018-10-19T01:58:35.781Z,102.53
2018-10-19T02:01:39.267Z,102.51
2018-10-19T02:04:42.832Z,102.39
2018-10-19T02:07:46.487Z,102.30
2018-10-19T02:10:50.033Z,102.25
2018-10-19T02:13:53.725Z,102.23
2018-10-19T02:16:57.401Z,101.98
2018-10-19T02:20:00.937Z,101.88
2018-10-19T02:23:04.774Z,101.78
2018-10-19T02:26:08.434Z,101.72
2018-10-19T02:29:12.045Z,101.63
2018-10-19T02:32:15.620Z,101.71
2018-10-19T02:35:19.402Z,101.66
2018-10-19T02:38:23.046Z,101.54
2018-10-19T02:41:26.574Z,101.56
2018-10-19T02:44:30.232Z,101.58
2018-10-19T02:47:33.974Z,101.45
2018-10-19T02:50:37.526Z,101.56
2018-10-19T02:53:41.094Z,101.70
2018-10-19T02:56:44.634Z,101.50
2018-10-19T02:59:48.299Z,101.62
2018-10-19T03:02:51.876Z,101.72
2018-10-19T03:05:55.371Z,101.75
2018-10-19T03:08:58.936Z,101.70
2018-10-19T03:15:27.998Z,101.89
2018-10-19T03:18:31.520Z,102.00
2018-10-19T03:21:35.080Z,101.86
2018-10-19T03:24:38.925Z,101.93
2018-10-19T03:27:42.666Z,101.82
2018-10-19T03:30:46.281Z,101.84
2018-10-19T03:33:49.815Z,102.15
2018-10-19T03:36:53.394Z,101.98
2018-10-19T03:39:57.002Z,101.94
2018-10-19T03:43:00.584Z,101.88
2018-10-19T03:46:04.195Z,101.94
2018-10-19T03:49:07.932Z,102.15
2018-10-19T03:52:11.408Z,102.20
2018-10-19T03:55:15.122Z,102.20
2018-10-19T03:58:18.761Z,102.25
2018-10-19T04:01:22.454Z,102.23
2018-10-19T04:04:25.989Z,102.16
2018-10-19T04:07:29.620Z,101.85
2018-10-19T04:10:33.201Z,101.68
2018-10-19T04:13:37.760Z,101.59
2018-10-19T04:16:41.420Z,101.72
2018-10-19T04:19:45.105Z,102.04
2018-10-19T04:22:48.633Z,102.30
2018-10-19T04:25:52.176Z,102.30
2018-10-19T04:28:55.760Z,102.30
2018-10-19T04:31:59.295Z,102.52
2018-10-19T04:35:02.980Z,102.66
2018-10-19T04:38:06.520Z,102.69
2018-10-19T04:41:10.166Z,102.73
2018-10-19T04:44:13.727Z,102.88
2018-10-19T04:47:24.032Z,102.80
2018-10-19T04:50:27.662Z,102.83
2018-10-19T04:53:31.398Z,102.91
2018-10-19T04:56:34.890Z,102.93
2018-10-19T04:59:38.483Z,103.06
2018-10-19T05:02:42.104Z,102.96
2018-10-19T05:05:45.684Z,103.18
2018-10-19T05:08:49.214Z,103.10
2018-10-19T05:11:52.857Z,103.10
2018-10-19T05:14:56.375Z,103.06
2018-10-19T05:18:00.181Z,103.05
2018-10-19T05:21:04.038Z,102.98
2018-10-19T05:24:07.664Z,103.02
2018-10-19T05:27:11.322Z,103.02
2018-10-19T05:30:14.895Z,103.01
2018-10-19T05:33:18.462Z,102.85
2018-10-19T05:36:22.308Z,102.84
2018-10-19T05:39:25.846Z,102.88
2018-10-19T05:42:29.464Z,102.86
2018-10-19T05:45:33.068Z,102.91
2018-10-19T05:48:36.588Z,102.84
2018-10-19T05:51:40.115Z,102.87
2018-10-19T05:54:43.867Z,102.85
2018-10-19T05:57:47.435Z,102.74
2018-10-19T06:00:50.945Z,102.72
2018-10-19T06:03:54.536Z,102.58
2018-10-19T06:06:58.181Z,102.41
2018-10-19T06:10:01.863Z,102.41
2018-10-19T06:13:05.476Z,102.31
2018-10-19T06:16:09.061Z,102.20
2018-10-19T06:19:12.612Z,102.22
2018-10-19T06:22:16.217Z,103.68
2018-10-19T06:25:19.707Z,103.57
2018-10-19T06:28:23.323Z,103.56
2018-10-19T06:31:26.968Z,103.55
2018-10-19T06:34:30.521Z,103.41
2018-10-19T06:37:34.160Z,103.28
2018-10-19T06:40:37.753Z,103.03
2018-10-19T06:43:41.446Z,102.89
2018-10-19T06:46:45.060Z,102.58
2018-10-19T06:49:48.538Z,102.46
2018-10-19T06:52:52.096Z,101.81
2018-10-19T06:55:59.273Z,101.73
2018-10-19T06:59:05.166Z,101.36
2018-10-19T07:02:11.169Z,101.23
2018-10-19T07:05:16.042Z,101.00
2018-10-19T07:08:19.946Z,100.25
2018-10-19T07:11:23.593Z,100.13
2018-10-19T07:14:28.629Z,100.11
2018-10-19T07:17:32.160Z,99.96
2018-10-19T07:20:35.862Z,98.97
2018-10-19T07:23:39.443Z,98.62
2018-10-19T07:26:43.044Z,97.81
2018-10-19T07:29:46.675Z,98.02
2018-10-19T07:32:50.218Z,97.83
2018-10-19T07:35:54.063Z,97.18
2018-10-19T07:38:57.597Z,97.67
2018-10-19T07:42:01.193Z,96.75
2018-10-19T07:45:04.852Z,97.34
2018-10-19T07:48:08.711Z,97.47
2018-10-19T07:51:12.964Z,97.86
2018-10-19T07:54:16.535Z,98.28
2018-10-19T07:57:20.133Z,98.20
2018-10-19T08:00:23.786Z,98.52
2018-10-19T08:03:27.399Z,97.49
2018-10-19T08:06:31.047Z,97.46
2018-10-19T08:09:34.644Z,97.61
2018-10-19T08:12:38.265Z,97.88
2018-10-19T08:15:41.798Z,97.41
2018-10-19T08:18:45.403Z,96.50
2018-10-19T08:21:49.081Z,95.57
2018-10-19T08:24:53.694Z,95.49
2018-10-19T08:27:57.214Z,95.70
2018-10-19T08:31:00.808Z,95.92
2018-10-19T08:34:04.653Z,97.37
2018-10-19T08:37:08.188Z,96.45
2018-10-19T08:40:11.693Z,96.37
2018-10-19T08:43:15.330Z,96.91
2018-10-19T08:46:24.210Z,97.03
2018-10-19T08:49:27.858Z,95.41
2018-10-19T08:52:31.450Z,95.88
2018-10-19T08:55:35.148Z,96.81
2018-10-19T08:58:38.699Z,95.78
2018-10-19T09:01:42.254Z,95.51
2018-10-19T09:04:45.797Z,95.61
2018-10-19T09:07:49.474Z,95.93
2018-10-19T09:10:53.269Z,94.99
2018-10-19T09:13:56.820Z,93.89
2018-10-19T09:17:00.529Z,94.33
2018-10-19T09:20:04.395Z,92.03
2018-10-19T09:23:08.106Z,93.61
2018-10-19T09:26:11.654Z,93.52
2018-10-19T09:29:15.711Z,92.64
2018-10-19T09:32:19.258Z,92.46
2018-10-19T09:35:22.790Z,90.45
2018-10-19T09:38:26.342Z,90.29
2018-10-19T09:41:30.139Z,90.67
2018-10-19T09:44:33.859Z,89.20
2018-10-19T09:47:37.526Z,88.88
2018-10-19T09:50:41.124Z,86.74
2018-10-19T09:53:44.684Z,87.91
2018-10-19T09:56:48.257Z,89.29
2018-10-19T09:59:51.855Z,88.30
2018-10-19T10:02:55.549Z,88.21
2018-10-19T10:05:59.204Z,89.97
2018-10-19T10:09:03.004Z,91.14
2018-10-19T10:12:06.519Z,89.52
2018-10-19T10:15:10.240Z,90.65
2018-10-19T10:18:13.550Z,90.81
2018-10-19T10:21:17.375Z,91.57
2018-10-19T10:24:21.011Z,92.58
2018-10-19T10:27:24.721Z,92.72
2018-10-19T10:30:28.367Z,92.69
2018-10-19T10:33:31.985Z,93.64
2018-10-19T10:36:35.541Z,93.30
2018-10-19T10:39:39.076Z,92.63
2018-10-19T10:42:42.637Z,93.09
2018-10-19T10:45:46.210Z,93.04
2018-10-19T10:48:49.704Z,93.75
2018-10-19T10:51:53.431Z,93.77
2018-10-19T10:54:57.060Z,93.61
2018-10-19T10:58:00.724Z,93.45
2018-10-19T11:01:04.456Z,93.58
2018-10-19T11:04:08.123Z,94.08
2018-10-19T11:07:11.604Z,94.65
2018-10-19T11:10:15.137Z,95.09
2018-10-19T11:13:18.840Z,95.18
2018-10-19T11:16:22.447Z,95.82
2018-10-19T11:19:26.024Z,95.48
2018-10-19T11:22:29.605Z,95.20
2018-10-19T11:25:33.384Z,94.63
2018-10-19T11:28:36.949Z,93.16
2018-10-19T11:31:40.567Z,92.80
2018-10-19T11:34:44.079Z,93.76
2018-10-19T11:37:47.776Z,94.14
2018-10-19T11:40:51.305Z,95.18
2018-10-19T11:43:54.826Z,94.62
2018-10-19T11:47:00.732Z,92.49
2018-10-19T11:50:04.346Z,92.03
2018-10-19T11:53:07.986Z,89.92
2018-10-19T11:56:11.509Z,91.23
2018-10-19T11:59:15.099Z,91.78
2018-10-19T12:02:18.611Z,93.40
2018-10-19T12:05:22.282Z,92.59
2018-10-19T12:08:25.833Z,93.17
2018-10-19T12:11:29.520Z,91.81
2018-10-19T12:14:33.066Z,87.21
2018-10-19T12:17:36.632Z,85.10
2018-10-19T12:20:40.248Z,87.30
2018-10-19T12:23:43.882Z,84.91
2018-10-19T12:26:47.451Z,81.16
2018-10-19T12:29:51.137Z,84.79
2018-10-19T12:32:54.727Z,83.39
2018-10-19T12:35:58.312Z,81.47
2018-10-19T12:39:02.023Z,79.59
2018-10-19T12:42:05.845Z,77.57
2018-10-19T12:45:20.532Z,77.03
2018-10-19T12:48:24.201Z,77.41
2018-10-19T12:51:27.870Z,80.21
2018-10-19T12:54:32.872Z,80.22
2018-10-19T12:57:36.723Z,79.39
2018-10-19T13:00:40.456Z,79.70
2018-10-19T13:03:44.288Z,79.10
2018-10-19T13:06:47.925Z,78.71
2018-10-19T13:09:51.753Z,77.52
2018-10-19T13:12:55.377Z,74.68
2018-10-19T13:15:59.626Z,73.03
2018-10-19T13:19:03.543Z,73.07
2018-10-19T13:22:07.201Z,74.04
2018-10-19T13:25:10.943Z,74.60
2018-10-19T13:28:14.912Z,75.28
2018-10-19T13:31:18.575Z,77.73
2018-10-19T13:34:22.385Z,78.00
2018-10-19T13:37:26.042Z,79.29
2018-10-19T13:40:29.701Z,77.48
2018-10-19T13:43:33.173Z,78.77
2018-10-19T13:46:36.991Z,79.96
2018-10-19T13:49:40.655Z,79.49
2018-10-19T13:52:44.369Z,73.66
2018-10-19T13:55:48.063Z,72.30
2018-10-19T13:58:51.673Z,75.68
2018-10-19T14:01:55.377Z,77.48
2018-10-19T14:04:59.024Z,77.39
2018-10-19T14:08:02.534Z,76.12
2018-10-19T14:11:06.440Z,75.26
2018-10-19T14:14:10.174Z,73.03
2018-10-19T14:17:14.006Z,71.82
2018-10-19T14:20:17.643Z,71.72
2018-10-19T14:23:21.236Z,73.22
2018-10-19T14:26:24.821Z,73.26
2018-10-19T14:29:28.539Z,73.71
2018-10-19T14:32:32.153Z,73.74
2018-10-19T14:35:35.903Z,74.35
2018-10-19T14:38:39.614Z,75.65
2018-10-19T14:41:43.304Z,75.17
2018-10-19T14:44:46.968Z,72.30
2018-10-19T14:47:50.488Z,71.37
2018-10-19T14:50:54.129Z,71.21
2018-10-19T14:53:57.778Z,71.84
2018-10-19T14:57:01.418Z,72.74
2018-10-19T15:00:05.883Z,70.77
2018-10-19T15:03:09.693Z,72.14
2018-10-19T15:06:13.236Z,72.69
2018-10-19T15:09:17.044Z,71.87
2018-10-19T15:12:20.768Z,72.09
2018-10-19T15:15:24.497Z,72.64
2018-10-19T15:18:28.087Z,70.92
2018-10-19T15:21:31.842Z,71.50
2018-10-19T15:24:35.484Z,73.41
2018-10-19T15:27:40.010Z,74.68
2018-10-19T15:30:43.633Z,75.23
2018-10-19T15:33:47.178Z,75.77
2018-10-19T15:36:50.790Z,74.96
2018-10-19T15:39:54.568Z,74.62
2018-10-19T15:42:58.214Z,75.10
2018-10-19T15:46:01.799Z,76.00
2018-10-19T15:49:05.425Z,76.33
2018-10-19T15:52:08.987Z,75.15
2018-10-19T15:55:12.643Z,74.98
2018-10-19T15:58:16.315Z,75.55
2018-10-19T16:01:19.909Z,75.81
2018-10-19T16:04:23.516Z,75.41
2018-10-19T16:07:27.163Z,74.88
2018-10-19T16:10:30.817Z,74.97
2018-10-19T16:13:34.642Z,75.96
2018-10-19T16:16:38.270Z,75.73
2018-10-19T16:19:42.183Z,76.68
2018-10-19T16:22:45.802Z,78.12
2018-10-19T16:25:49.492Z,78.77
2018-10-19T16:28:53.133Z,79.27
2018-10-19T16:31:56.840Z,79.08
2018-10-19T16:35:00.613Z,79.83
2018-10-19T16:38:04.438Z,80.33
2018-10-19T16:41:08.045Z,81.67
2018-10-19T16:44:11.734Z,82.02
2018-10-19T16:47:15.468Z,82.80
2018-10-19T16:50:19.093Z,83.86
2018-10-19T16:53:22.905Z,84.14
2018-10-19T16:56:26.701Z,84.44
2018-10-19T16:59:30.370Z,83.98
2018-10-19T17:02:33.936Z,84.66
2018-10-19T17:05:37.763Z,84.91
2018-10-19T17:08:41.457Z,85.09
2018-10-19T17:11:45.031Z,85.28
2018-10-19T17:14:48.760Z,84.88
2018-10-19T17:17:52.419Z,84.57
2018-10-19T17:20:56.126Z,85.17
2018-10-19T17:23:59.898Z,85.66
2018-10-19T17:27:03.541Z,86.51
2018-10-19T17:30:09.590Z,87.14
2018-10-19T17:33:13.303Z,88.19
2018-10-19T17:36:16.832Z,88.45
2018-10-19T17:39:20.545Z,88.25
2018-10-19T17:42:24.457Z,87.45
2018-10-19T17:45:28.144Z,86.63
2018-10-19T17:48:31.848Z,86.51
2018-10-19T17:51:35.544Z,86.88
2018-10-19T17:54:39.177Z,86.37
2018-10-19T17:57:42.801Z,86.26
2018-10-19T18:00:46.406Z,85.73
2018-10-19T18:03:49.966Z,85.18
2018-10-19T18:06:53.636Z,85.71
2018-10-19T18:09:57.371Z,86.43
2018-10-19T18:13:01.106Z,86.99
2018-10-19T18:16:05.000Z,86.88
2018-10-19T18:19:08.480Z,87.40
2018-10-19T18:22:12.660Z,86.53
2018-10-19T18:25:16.077Z,86.17
2018-10-19T18:28:19.749Z,87.19
2018-10-19T18:31:23.381Z,88.07
2018-10-19T18:34:27.091Z,88.25
2018-10-19T18:37:31.184Z,88.95
2018-10-19T18:40:34.791Z,89.09
2018-10-19T18:43:38.494Z,89.43
2018-10-19T18:46:42.154Z,88.86
2018-10-19T18:49:45.835Z,88.96
2018-10-19T18:52:49.443Z,89.55
2018-10-19T18:55:53.187Z,89.36
2018-10-19T18:58:56.908Z,89.33
2018-10-19T19:02:00.600Z,88.75
2018-10-19T19:05:04.308Z,88.40
2018-10-19T19:08:08.107Z,88.49
2018-10-19T19:11:11.681Z,88.10
2018-10-19T19:14:15.506Z,88.08
2018-10-19T19:17:18.955Z,87.52
2018-10-19T19:20:29.833Z,87.04
2018-10-19T19:23:37.617Z,86.85
2018-10-19T19:26:41.361Z,87.36
2018-10-19T19:29:45.232Z,87.84
2018-10-19T19:32:54.082Z,86.85
2018-10-19T19:35:57.500Z,87.00
2018-10-19T19:39:02.180Z,87.07
2018-10-19T19:42:11.589Z,86.91
2018-10-19T19:45:15.526Z,87.17
2018-10-19T19:48:24.373Z,87.84
2018-10-19T19:51:28.798Z,87.99
2018-10-19T19:54:32.477Z,88.58
2018-10-19T19:57:36.117Z,89.61
2018-10-19T20:00:39.726Z,91.00
2018-10-19T20:03:43.352Z,91.90
2018-10-19T20:06:47.018Z,92.26
2018-10-19T20:09:50.903Z,91.83
2018-10-19T20:12:54.513Z,92.64
2018-10-19T20:15:58.523Z,93.22
2018-10-19T20:19:02.227Z,94.40
2018-10-19T20:22:06.255Z,94.46
2018-10-19T20:25:10.988Z,94.51
2018-10-19T20:28:14.657Z,95.44
2018-10-19T20:31:18.256Z,94.28
2018-10-19T20:34:21.968Z,94.34
2018-10-19T20:37:25.852Z,94.32
2018-10-19T20:40:29.418Z,95.01
2018-10-19T20:43:33.251Z,94.83
2018-10-19T20:46:36.947Z,95.38
2018-10-19T20:49:40.443Z,95.99
2018-10-19T20:52:44.043Z,97.08
2018-10-19T20:55:47.769Z,97.64
2018-10-19T20:58:51.390Z,97.24
2018-10-19T21:01:55.125Z,97.87
2018-10-19T21:04:58.795Z,97.40
2018-10-19T21:08:02.549Z,98.12
2018-10-19T21:11:07.014Z,98.16
2018-10-19T21:14:17.125Z,98.63
2018-10-19T21:17:20.853Z,98.23
2018-10-19T21:20:24.384Z,98.19
2018-10-19T21:23:28.035Z,99.03
2018-10-19T21:26:32.039Z,98.69
2018-10-19T21:29:35.647Z,98.72
2018-10-19T21:32:39.254Z,98.84
2018-10-19T21:35:42.828Z,99.15
2018-10-19T21:38:46.583Z,99.52
2018-10-19T21:41:50.169Z,99.44
2018-10-19T21:44:53.827Z,99.09
2018-10-19T21:47:57.366Z,98.89
2018-10-19T21:51:01.007Z,98.78
2018-10-19T21:54:05.175Z,99.16
2018-10-19T21:57:08.878Z,99.43
2018-10-19T22:00:12.717Z,99.61
2018-10-19T22:03:16.317Z,99.76
2018-10-19T22:06:19.923Z,100.03
2018-10-19T22:09:23.543Z,100.08
2018-10-19T22:12:27.265Z,99.98
2018-10-19T22:15:37.319Z,99.76
2018-10-19T22:18:40.917Z,99.73
2018-10-19T22:21:44.519Z,99.65
2018-10-19T22:24:48.139Z,99.40
2018-10-19T22:27:52.106Z,99.26
2018-10-19T22:30:55.787Z,99.21
2018-10-19T22:33:59.391Z,99.40
2018-10-19T22:37:02.969Z,99.12
2018-10-19T22:40:07.099Z,99.25
2018-10-19T22:43:10.715Z,99.15
2018-10-19T22:46:14.319Z,99.19
2018-10-19T22:49:17.939Z,99.14
2018-10-19T22:52:21.612Z,99.27
2018-10-19T22:55:25.292Z,99.43
2018-10-19T22:58:28.863Z,99.40
2018-10-19T23:01:32.407Z,99.32
2018-10-19T23:04:35.983Z,99.63
2018-10-19T23:07:39.627Z,100.06
2018-10-19T23:10:43.463Z,100.41
2018-10-19T23:13:47.263Z,100.79
2018-10-19T23:16:50.874Z,100.92
2018-10-19T23:19:54.699Z,100.69
2018-10-19T23:22:58.342Z,100.69
2018-10-19T23:26:01.918Z,100.56
2018-10-19T23:29:06.039Z,100.30
2018-10-19T23:32:09.513Z,100.21
2018-10-19T23:35:13.261Z,100.71
2018-10-19T23:38:16.733Z,100.56
2018-10-19T23:41:20.404Z,100.61
2018-10-19T23:44:23.989Z,100.80
2018-10-19T23:47:27.705Z,100.80
2018-10-19T23:50:31.269Z,100.82
2018-10-19T23:53:34.988Z,100.95
2018-10-19T23:56:38.645Z,100.92
2018-10-19T23:59:42.308Z,100.85
